OFS weather

San Carlos Airport
Tacotalpa, Tabasco, Mexico

Public forecast

Using degrees Celsius for public forecast. Weather courtesy of forecast.io.

METAR (pilot weather report)

Report is more than 2 hours old.

Closest report is Carlos Rovirosa Pérez International Airport, 24.8 nm (45.9 km) N. Retrieved 2019/06/25 02:49 UTC (5 hours ago):

MMVA 250249Z 07006KT 7SM SKC 27/22 A2983 RMK SLP099 57013 960

TAF (pilot weather forecast)

Closest forecast is Carlos Rovirosa Pérez International Airport, 24.8 nm (45.9 km) N. Retrieved 2019/06/25 06:13 UTC (1 hour ago):

TAF MMVA 250506Z 2506/2606 00000KT P6SM SKC FM251800 10012KT P6SM SCT015 SCT080 BKN250 FM260500 09005KT P6SM SKC